Time;durP1;ratioP1;P1;durP2;ratioP2;P2;SDS_P1;SDS_P2;PMS_P1;PMS_P2;Temp;Humidity;BMP_temperature;BMP_pressure;BME280_temperature;BME280_humidity;BME280_pressure;Samples;Min_cycle;Max_cycle;Signal;HPM_P1;HPM_P2
2023/02/15 00:02:19;;;;;;;31.02;14.77;;;1.30;99.90;;;-144.05;80.77;57063.34;5037644;28;20029;-83
2023/02/15 00:04:55;;;;;;;29.90;15.55;;;1.30;99.90;;;-144.05;80.25;57073.97;5022076;28;20112;-83
2023/02/15 00:07:22;;;;;;;30.48;15.95;;;1.20;99.90;;;-144.05;80.25;57042.13;5038418;28;20022;-81
2023/02/15 00:09:49;;;;;;;30.65;14.95;;;1.20;99.90;;;-144.05;80.76;57014.50;5019164;28;20577;-82
2023/02/15 00:12:16;;;;;;;29.95;15.15;;;1.20;99.90;;;-144.05;80.33;57016.63;5039777;28;20036;-83
2023/02/15 00:14:43;;;;;;;28.35;13.73;;;1.20;99.90;;;-144.05;79.74;57052.75;5020032;28;20090;-83
2023/02/15 00:17:09;;;;;;;24.95;13.18;;;1.10;99.90;;;-144.05;79.55;57046.38;5021368;28;20034;-83
2023/02/15 00:19:35;;;;;;;30.42;13.95;;;1.00;99.90;;;-144.05;80.24;57050.63;5039159;28;20032;-82
2023/02/15 00:22:01;;;;;;;38.20;17.30;;;0.90;99.90;;;-144.05;81.89;57076.09;5021923;28;20120;-83
2023/02/15 00:24:27;;;;;;;39.65;18.13;;;1.00;99.90;;;-144.05;81.18;57061.22;5022816;28;20057;-82
2023/02/15 00:26:53;;;;;;;29.05;16.30;;;1.10;99.90;;;-144.05;80.88;57056.97;5020881;28;20026;-84
2023/02/15 00:29:20;;;;;;;31.38;16.42;;;1.10;99.90;;;-144.05;80.60;57046.38;5019135;28;20045;-82
2023/02/15 00:31:47;;;;;;;28.58;14.65;;;1.10;99.90;;;-144.05;80.49;57048.50;5044292;28;20036;-82
2023/02/15 00:34:21;;;;;;;30.63;14.52;;;1.10;99.90;;;-144.05;79.77;57048.50;5025188;28;20485;-84
2023/02/15 00:36:49;;;;;;;24.05;13.38;;;0.90;99.90;;;-144.05;80.05;57042.13;5027958;28;20030;-85
2023/02/15 00:39:17;;;;;;;28.10;14.20;;;0.80;99.90;;;-144.05;79.95;57027.25;5024016;28;20083;-82
2023/02/15 00:41:44;;;;;;;27.88;14.55;;;0.70;99.90;;;-144.05;80.36;57067.59;5023713;28;20029;-82
2023/02/15 00:44:11;;;;;;;29.73;14.80;;;0.70;99.90;;;-144.05;80.15;57054.88;5024798;28;20022;-84
2023/02/15 00:46:37;;;;;;;30.05;15.63;;;0.60;99.90;;;-144.05;80.53;57069.72;5025190;28;20025;-83
2023/02/15 00:49:04;;;;;;;27.10;14.50;;;0.60;99.90;;;-144.05;80.19;57048.50;5020901;28;20026;-83
2023/02/15 00:51:32;;;;;;;34.28;15.18;;;0.50;99.90;;;-144.05;80.17;57073.97;5020934;28;20021;-82
2023/02/15 00:53:59;;;;;;;32.35;15.80;;;0.40;99.90;;;-144.05;80.04;57061.22;5038058;28;20041;-83
2023/02/15 00:56:25;;;;;;;27.75;14.95;;;0.30;99.90;;;-144.05;80.57;57056.97;5019755;28;20612;-80
2023/02/15 00:58:51;;;;;;;30.67;14.45;;;0.30;99.90;;;-144.05;80.20;57076.09;5018588;28;20057;-83
2023/02/15 01:01:20;;;;;;;29.92;16.13;;;0.30;99.90;;;-144.05;80.28;57054.88;5036717;28;20101;-81
2023/02/15 01:03:47;;;;;;;33.05;16.20;;;0.30;99.90;;;-144.05;80.21;57090.97;5018983;28;20057;-82
2023/02/15 01:06:16;;;;;;;30.80;14.27;;;0.20;99.90;;;-144.05;80.07;57084.59;5037293;28;20025;-79
2023/02/15 01:08:46;;;;;;;37.67;17.58;;;0.20;99.90;;;-144.05;80.67;57056.97;5036822;28;20026;-82
2023/02/15 01:11:21;;;;;;;39.22;17.20;;;0.30;99.90;;;-144.05;80.13;57054.88;5034367;28;20040;-84
2023/02/15 01:13:54;;;;;;;27.67;14.27;;;0.40;99.90;;;-144.05;80.14;57044.25;5034704;28;20025;-81
2023/02/15 01:16:21;;;;;;;31.20;14.48;;;0.40;99.90;;;-144.05;80.00;57056.97;5040494;28;20049;-81
2023/02/15 01:18:48;;;;;;;23.55;13.60;;;0.20;99.90;;;-144.05;80.02;57061.22;5037072;28;20034;-76
2023/02/15 01:21:19;;;;;;;33.55;15.90;;;0.10;99.90;;;-144.05;80.54;57086.72;5018963;28;20049;-84
2023/02/15 01:23:45;;;;;;;34.90;15.57;;;0.10;99.90;;;-144.05;80.75;57082.47;5036691;28;20044;-84
2023/02/15 01:26:12;;;;;;;34.20;15.65;;;0.20;99.90;;;-144.05;80.64;57048.50;5019835;28;20477;-80
2023/02/15 01:28:38;;;;;;;37.33;16.77;;;0.20;99.90;;;-144.05;80.99;57046.38;5024030;28;20510;-84
2023/02/15 01:31:22;;;;;;;31.27;16.25;;;0.30;99.90;;;-144.05;80.46;57050.63;5028920;28;20449;-80
2023/02/15 01:33:49;;;;;;;31.95;15.10;;;0.20;99.90;;;-144.05;80.72;57073.97;5015906;28;20119;-83
2023/02/15 01:36:17;;;;;;;29.95;15.45;;;0.20;99.90;;;-144.05;80.96;57080.34;5032099;28;20040;-83
2023/02/15 01:38:42;;;;;;;32.00;16.98;;;0.20;99.90;;;-144.05;80.65;57040.00;5031820;28;20029;-83
2023/02/15 01:41:25;;;;;;;29.02;16.23;;;0.20;99.90;;;-144.05;80.50;57078.22;5017781;28;20460;-83
2023/02/15 01:43:59;;;;;;;34.15;17.27;;;0.20;99.90;;;-144.05;80.23;57063.34;5018248;28;20447;-84
2023/02/15 01:46:40;;;;;;;29.67;15.55;;;0.20;99.90;;;-144.05;80.27;57067.59;5028021;28;20030;-82
2023/02/15 01:49:21;;;;;;;29.65;15.65;;;0.20;99.90;;;-144.05;80.62;57061.22;5041722;28;20552;-80
2023/02/15 01:51:52;;;;;;;32.50;16.77;;;0.00;99.90;;;-144.05;81.69;57056.97;5017663;28;20026;-80
2023/02/15 01:54:35;;;;;;;37.13;17.42;;;0.10;99.90;;;-144.05;81.76;57067.59;5035520;28;20018;-84
2023/02/15 01:57:17;;;;;;;36.47;16.45;;;0.10;99.90;;;-144.05;82.17;57033.63;5035556;28;20469;-79
2023/02/15 01:59:50;;;;;;;35.55;17.77;;;0.20;99.90;;;-144.05;82.06;57044.25;5016962;28;20132;-81
2023/02/15 02:02:20;;;;;;;36.22;16.42;;;0.20;99.90;;;-144.05;82.41;57067.59;5034977;28;20037;-83
2023/02/15 02:04:56;;;;;;;36.47;16.90;;;0.30;99.90;;;-144.05;81.96;57065.47;5035336;28;20018;-83
2023/02/15 02:07:31;;;;;;;;;;;0.30;99.90;;;-144.05;81.60;57056.97;5035649;28;20029;-81
2023/02/15 02:09:58;;;;;;;30.02;14.82;;;0.30;99.90;;;-144.05;81.56;57063.34;5016966;28;20004;-81
2023/02/15 02:12:25;;;;;;;31.27;15.57;;;0.20;99.90;;;-144.05;81.80;57042.13;5035679;28;20025;-81
2023/02/15 02:14:54;;;;;;;33.25;16.50;;;0.10;99.90;;;-144.05;81.61;57082.47;5034824;28;20025;-82
2023/02/15 02:17:42;;;;;;;33.65;17.48;;;0.00;99.90;;;-144.05;81.96;57073.97;5017186;28;20037;-80
2023/02/15 02:20:36;;;;;;;34.75;18.98;;;-0.20;99.90;;;-144.05;82.39;57065.47;5017012;28;20084;-81
2023/02/15 02:23:23;;;;;;;45.75;20.55;;;-0.10;99.90;;;-144.05;82.56;57084.59;5017189;28;20041;-81
2023/02/15 02:26:51;;;;;;;40.90;18.88;;;0.00;99.90;;;-144.05;82.24;57073.97;5034967;28;20441;-81
2023/02/15 02:29:41;;;;;;;37.00;19.75;;;0.10;99.90;;;-144.05;82.30;57063.34;5016807;28;20026;-82
2023/02/15 02:32:44;;;;;;;39.38;17.48;;;0.20;99.90;;;-144.05;82.41;57035.75;5034785;28;20389;-83
2023/02/15 02:35:26;;;;;;;35.00;17.13;;;0.10;99.90;;;-144.05;82.00;57078.22;5016620;28;20029;-81
2023/02/15 02:38:49;;;;;;;40.35;17.75;;;0.00;99.90;;;-144.05;82.41;57097.34;5017134;28;20117;-81
2023/02/15 02:42:12;;;;;;;31.35;15.93;;;0.00;99.90;;;-144.05;81.96;57069.72;4995453;28;20038;-80
2023/02/15 02:44:58;;;;;;;34.95;16.27;;;0.00;99.90;;;-144.05;82.16;57065.47;5007196;28;20041;-81
2023/02/15 02:47:36;;;;;;;34.88;15.80;;;0.00;99.90;;;-144.05;82.41;57042.13;5016720;28;20040;-81
2023/02/15 02:50:11;;;;;;;32.85;16.20;;;0.10;99.90;;;-144.05;81.80;57084.59;5016820;28;20029;-82
2023/02/15 02:52:50;;;;;;;;;;;0.00;99.90;;;-144.05;82.06;57044.25;5016242;28;20095;-81
2023/02/15 02:55:38;;;;;;;37.33;18.17;;;0.00;99.90;;;-144.05;82.34;57050.63;5016938;28;19912;-82
2023/02/15 02:58:31;;;;;;;58.65;23.15;;;0.00;99.90;;;-144.05;82.86;57033.63;5016264;28;20034;-82
2023/02/15 03:01:11;;;;;;;39.50;19.48;;;0.10;99.90;;;-144.05;82.39;57040.00;5034208;28;20505;-81
2023/02/15 03:03:52;;;;;;;37.90;17.55;;;0.20;99.90;;;-144.05;81.39;57056.97;5034302;28;20512;-81
2023/02/15 03:07:00;;;;;;;30.67;15.48;;;0.10;99.90;;;-144.05;80.87;57025.13;5016823;28;20419;-81
2023/02/15 03:09:41;;;;;;;28.23;14.93;;;0.00;99.90;;;-144.05;80.62;57054.88;5016369;28;20037;-83
2023/02/15 03:12:32;;;;;;;29.63;15.00;;;0.00;99.90;;;-144.05;80.64;57050.63;5016544;28;20033;-82
2023/02/15 03:15:12;;;;;;;37.47;17.05;;;-0.10;99.90;;;-144.05;80.76;57056.97;5017163;28;20029;-84
2023/02/15 03:17:51;;;;;;;30.38;16.05;;;-0.20;99.90;;;-144.05;80.56;57069.72;5035384;28;20040;-83
2023/02/15 03:20:36;;;;;;;29.30;14.80;;;-0.20;99.90;;;-144.05;80.70;57086.72;5028138;28;20041;-83
2023/02/15 03:23:14;;;;;;;38.80;18.08;;;-0.40;99.90;;;-144.05;80.95;57076.09;5017086;28;20033;-80
2023/02/15 03:25:52;;;;;;;36.40;16.88;;;-0.30;99.90;;;-144.05;81.37;57054.88;5016843;28;20037;-84
2023/02/15 03:28:33;;;;;;;33.33;15.70;;;-0.30;99.90;;;-144.05;80.93;57063.34;5017360;28;20033;-81
2023/02/15 03:31:05;;;;;;;33.50;16.42;;;-0.30;99.90;;;-144.05;81.00;57086.72;5016198;28;20120;-82
2023/02/15 03:33:38;;;;;;;37.65;17.02;;;-0.40;99.90;;;-144.05;81.00;57059.09;5033548;28;20033;-83
2023/02/15 03:36:41;;;;;;;38.88;17.80;;;-0.40;99.90;;;-144.05;81.09;57061.22;5015712;28;20116;-82
2023/02/15 03:39:22;;;;;;;36.17;17.52;;;-0.40;99.90;;;-144.05;81.12;57067.59;5033317;28;20051;-80
2023/02/15 03:42:19;;;;;;;35.17;16.75;;;-0.30;99.90;;;-144.05;81.13;57067.59;5015681;28;20033;-80
2023/02/15 03:45:08;;;;;;;;;;;-0.30;99.90;;;-144.05;80.44;57069.72;5016165;28;20052;-81
2023/02/15 03:47:44;;;;;;;30.17;12.90;;;-0.50;99.90;;;-144.05;80.35;57076.09;5014619;28;19916;-80
2023/02/15 03:53:22;;;;;;;31.02;14.93;;;-0.70;99.90;;;-144.05;80.89;57056.97;5033790;28;20036;-83
2023/02/15 03:55:55;;;;;;;28.80;15.48;;;-0.60;99.90;;;-144.05;80.96;57071.84;5015772;28;20025;-82
2023/02/15 04:01:59;;;;;;;28.58;14.30;;;-0.70;99.90;;;-144.05;80.42;57061.22;5033425;28;20496;-80
2023/02/15 04:04:43;;;;;;;34.90;15.70;;;-0.80;99.90;;;-144.05;80.65;57044.25;5032935;28;20094;-79
2023/02/15 04:07:09;;;;;;;33.08;15.45;;;-0.90;99.90;;;-144.05;80.54;57093.09;5015324;28;20021;-80
2023/02/15 04:12:21;;;;;;;34.83;16.43;;;-1.10;99.90;;;-144.05;80.93;57069.72;5033291;28;20088;-83
2023/02/15 04:17:32;;;;;;;37.10;17.73;;;-1.00;99.90;;;-144.05;81.12;57086.72;5033419;28;20044;-82
2023/02/15 04:25:27;;;;;;;37.85;17.13;;;-0.90;99.90;;;-144.05;80.89;57093.09;5033509;28;20037;-82
2023/02/15 04:27:54;;;;;;;36.92;16.35;;;-0.80;99.90;;;-144.05;80.71;57056.97;5015379;28;20029;-81
2023/02/15 04:30:24;;;;;;;33.05;14.90;;;-0.90;99.90;;;-144.05;80.73;57084.59;5015960;28;20029;-83
2023/02/15 04:32:51;;;;;;;29.70;15.02;;;-1.00;99.90;;;-144.05;80.77;57071.84;5016382;28;20044;-83
2023/02/15 04:35:17;;;;;;;32.03;15.68;;;-1.00;99.90;;;-144.05;80.66;57065.47;5036864;28;20037;-84
2023/02/15 04:37:44;;;;;;;31.90;15.20;;;-1.00;99.90;;;-144.05;80.87;57052.75;5022581;28;20496;-81
2023/02/15 04:40:14;;;;;;;38.92;16.95;;;-1.10;99.90;;;-144.05;80.75;57084.59;5014560;28;20053;-82
2023/02/15 04:42:40;;;;;;;37.40;15.82;;;-1.10;99.90;;;-144.05;80.96;57078.22;5015476;28;20041;-83
2023/02/15 04:45:07;;;;;;;37.40;17.27;;;-1.10;99.90;;;-144.05;81.24;57073.97;5015070;28;20033;-81
2023/02/15 04:47:33;;;;;;;35.00;17.63;;;-1.00;99.90;;;-144.05;81.04;57078.22;5033041;28;20067;-82
2023/02/15 04:49:59;;;;;;;33.60;15.77;;;-1.00;99.90;;;-144.05;81.05;57067.59;5014933;28;20033;-81
2023/02/15 04:52:25;;;;;;;34.15;15.38;;;-1.00;99.90;;;-144.05;80.99;57082.47;5015382;28;20041;-82
2023/02/15 04:54:51;;;;;;;35.67;17.40;;;-1.00;99.90;;;-144.05;81.36;57061.22;5014896;28;20029;-82
2023/02/15 04:57:17;;;;;;;38.85;17.60;;;-1.00;99.90;;;-144.05;81.20;57065.47;5015179;28;20033;-82
2023/02/15 04:59:43;;;;;;;46.42;19.67;;;-1.00;99.90;;;-144.05;81.41;57052.75;5015451;28;20068;-82
2023/02/15 05:02:09;;;;;;;41.47;17.42;;;-0.90;99.90;;;-144.05;81.08;57040.00;5015231;28;20138;-82
2023/02/15 05:04:34;;;;;;;38.72;17.42;;;-0.90;99.90;;;-144.05;80.81;57080.34;5015282;28;20153;-80
2023/02/15 05:07:00;;;;;;;39.33;16.65;;;-1.00;99.90;;;-144.05;80.96;57084.59;5016190;28;20079;-83
2023/02/15 05:09:26;;;;;;;34.25;16.35;;;-1.00;99.90;;;-144.05;81.06;57088.84;5020401;28;20048;-82
2023/02/15 05:11:52;;;;;;;37.55;16.80;;;-1.10;99.90;;;-144.05;80.92;57090.97;5024904;28;20087;-80
2023/02/15 05:14:18;;;;;;;34.40;17.27;;;-1.10;99.90;;;-144.05;81.31;57073.97;5028742;28;20049;-83
2023/02/15 05:16:44;;;;;;;34.75;16.52;;;-1.10;99.90;;;-144.05;80.94;57050.63;5040783;28;20042;-82
2023/02/15 05:19:10;;;;;;;38.70;17.60;;;-1.20;99.90;;;-144.05;81.01;57046.38;5025854;28;20034;-82
2023/02/15 05:21:36;;;;;;;42.47;19.20;;;-1.20;99.90;;;-144.05;81.19;57086.72;5043030;28;20052;-83
2023/02/15 05:28:19;;;;;;;42.33;18.52;;;-1.20;99.90;;;-144.05;81.08;57054.88;5042382;28;20025;-83
2023/02/15 05:29:34;;;;;;;37.80;17.52;;;-1.10;99.90;;;-144.05;81.02;57076.09;5058468;28;20051;-83
2023/02/15 05:32:00;;;;;;;42.95;17.50;;;-1.10;99.90;;;-144.05;80.82;57082.47;5041559;28;20025;-82
2023/02/15 05:34:26;;;;;;;38.15;19.27;;;-1.20;99.90;;;-144.05;81.14;57065.47;5041757;28;20045;-82
2023/02/15 05:36:51;;;;;;;46.20;19.85;;;-1.20;99.90;;;-144.05;80.99;57078.22;5042072;28;20030;-83
2023/02/15 05:39:20;;;;;;;45.13;18.80;;;-1.30;99.90;;;-144.05;81.33;57080.34;5041879;28;20041;-82
2023/02/15 05:41:46;;;;;;;49.45;22.70;;;-1.30;99.90;;;-144.05;82.26;57056.97;5059148;28;20028;-84
2023/02/15 05:44:12;;;;;;;47.30;20.45;;;-1.10;99.90;;;-144.05;82.01;57050.63;5041872;28;20022;-83
2023/02/15 05:46:38;;;;;;;51.13;21.80;;;-1.10;99.90;;;-144.05;81.64;57065.47;5041911;28;20032;-85
2023/02/15 05:49:03;;;;;;;47.80;21.27;;;-1.00;99.90;;;-144.05;81.44;57080.34;5039811;28;20037;-83
2023/02/15 05:51:29;;;;;;;48.85;21.77;;;-0.80;99.90;;;-144.05;81.46;57046.38;5041217;28;20032;-84
2023/02/15 05:53:55;;;;;;;45.60;20.58;;;-0.80;99.90;;;-144.05;81.19;57054.88;5041001;28;20017;-83
2023/02/15 05:56:21;;;;;;;49.67;19.02;;;-0.70;99.90;;;-144.05;80.86;57052.75;5058424;28;20033;-83
2023/02/15 05:58:47;;;;;;;42.97;20.58;;;-0.80;99.90;;;-144.05;81.07;57065.47;5058592;28;20085;-84
2023/02/15 06:01:20;;;;;;;46.17;20.35;;;-0.80;99.90;;;-144.05;81.28;57078.22;5040238;28;20030;-83
2023/02/15 06:03:47;;;;;;;35.90;18.60;;;-0.90;99.90;;;-144.05;80.87;57086.72;5057794;28;20089;-82
2023/02/15 06:06:12;;;;;;;43.00;18.70;;;-1.00;99.90;;;-144.05;81.06;57073.97;5057967;28;20046;-82
2023/02/15 06:08:40;;;;;;;51.22;20.35;;;-1.00;99.90;;;-144.05;81.29;57080.34;5039644;28;20034;-84
2023/02/15 06:11:06;;;;;;;51.15;25.60;;;-1.00;99.90;;;-144.05;81.66;57082.47;5031803;28;20056;-83
2023/02/15 06:13:34;;;;;;;51.45;21.83;;;-1.00;99.90;;;-144.05;81.54;57046.38;5038796;28;20438;-83
2023/02/15 06:16:00;;;;;;;53.60;24.05;;;-0.90;99.90;;;-144.05;81.74;57078.22;5038254;28;20497;-83
2023/02/15 06:18:27;;;;;;;55.00;24.58;;;-0.80;99.90;;;-144.05;81.47;57084.59;5019859;28;20025;-83
2023/02/15 06:20:55;;;;;;;54.17;23.30;;;-0.80;99.90;;;-144.05;81.36;57071.84;5018941;28;20095;-84
2023/02/15 06:23:20;;;;;;;49.63;21.70;;;-0.70;99.90;;;-144.05;81.24;57069.72;5037879;28;20556;-82
2023/02/15 06:25:46;;;;;;;45.20;21.00;;;-0.70;99.90;;;-144.05;81.05;57069.72;5045511;28;20036;-83
2023/02/15 06:28:13;;;;;;;45.78;21.08;;;-0.60;99.90;;;-144.05;80.84;57078.22;5028993;28;20029;-85
2023/02/15 06:30:39;;;;;;;51.95;21.55;;;-0.70;99.90;;;-144.05;80.80;57067.59;5047695;28;20031;-81
2023/02/15 06:33:05;;;;;;;46.33;20.55;;;-0.70;99.90;;;-144.05;80.77;57040.00;5044546;28;20030;-82
2023/02/15 06:35:31;;;;;;;41.15;20.67;;;-0.70;99.90;;;-144.05;80.77;57035.75;5020418;28;20091;-82
2023/02/15 06:37:57;;;;;;;42.42;20.60;;;-0.80;99.90;;;-144.05;80.64;57065.47;5037682;28;20076;-83
2023/02/15 06:40:23;;;;;;;46.47;20.13;;;-0.80;99.90;;;-144.05;80.35;57065.47;5029158;28;20033;-84
2023/02/15 06:42:49;;;;;;;50.70;20.83;;;-1.00;99.90;;;-144.05;81.96;57084.59;5046888;28;20034;-80
2023/02/15 06:45:15;;;;;;;53.45;23.58;;;-0.90;99.90;;;-144.05;82.13;57042.13;5028453;28;20025;-81
2023/02/15 06:47:41;;;;;;;54.97;24.20;;;-0.90;99.90;;;-144.05;81.62;57073.97;5027595;28;20099;-80
2023/02/15 06:50:09;;;;;;;60.88;26.80;;;-0.80;99.90;;;-144.05;81.90;57059.09;5020383;28;20055;-82
2023/02/15 06:52:35;;;;;;;55.47;26.13;;;-0.60;99.90;;;-144.05;81.65;57061.22;5036033;28;20068;-81
2023/02/15 06:55:01;;;;;;;54.90;27.15;;;-0.40;99.90;;;-144.05;81.66;57059.09;5018297;28;20116;-82
2023/02/15 06:57:26;;;;;;;61.20;25.08;;;-0.20;99.90;;;-144.05;81.13;57061.22;5019192;28;20033;-81
2023/02/15 06:59:52;;;;;;;43.35;22.40;;;-0.10;99.90;;;-144.05;80.87;57078.22;5038672;28;20558;-82
2023/02/15 07:02:21;;;;;;;44.40;21.45;;;-0.20;99.90;;;-144.05;80.60;57059.09;5019210;28;20079;-82
2023/02/15 07:04:47;;;;;;;38.22;19.95;;;-0.30;99.90;;;-144.05;80.66;57025.13;5036478;28;20033;-80
2023/02/15 07:07:16;;;;;;;55.20;24.80;;;-0.30;99.90;;;-144.05;80.36;57061.22;5020094;28;20484;-81
2023/02/15 07:09:44;;;;;;;44.53;22.55;;;-0.40;99.90;;;-144.05;80.78;57052.75;5020211;28;20025;-81
2023/02/15 07:14:54;;;;;;;38.88;19.55;;;-0.40;99.90;;;-144.05;80.79;57076.09;5044813;28;20102;-84
2023/02/15 07:17:20;;;;;;;45.40;20.20;;;-0.40;99.90;;;-144.05;80.75;57069.72;5043397;28;20025;-82
2023/02/15 07:19:46;;;;;;;41.60;21.10;;;-0.30;99.90;;;-144.05;80.69;57059.09;5020051;28;20114;-83
2023/02/15 07:22:12;;;;;;;48.55;21.40;;;-0.20;99.90;;;-144.05;80.75;57035.75;5018750;28;20034;-82
2023/02/15 07:24:38;;;;;;;48.08;21.85;;;-0.10;99.90;;;-144.05;80.56;57076.09;5019510;28;20037;-83
2023/02/15 07:27:03;;;;;;;41.58;19.80;;;-0.10;99.90;;;-144.05;80.74;57044.25;5018168;28;20080;-84
2023/02/15 07:29:29;;;;;;;42.13;19.48;;;0.00;99.90;;;-144.05;80.43;57063.34;5019342;28;20033;-83
2023/02/15 07:31:55;;;;;;;45.95;21.35;;;0.20;99.90;;;-144.05;80.81;57035.75;5020440;28;20036;-84
2023/02/15 07:34:21;;;;;;;41.38;20.42;;;0.40;99.90;;;-144.05;80.17;57033.63;5020077;28;20036;-82
2023/02/15 07:36:50;;;;;;;51.22;22.33;;;0.60;99.90;;;-144.05;78.47;57054.88;5018521;28;20401;-82
2023/02/15 07:39:15;;;;;;;40.13;20.67;;;0.70;99.90;;;-144.05;78.59;57029.38;5016669;28;20409;-82
2023/02/15 07:41:41;;;;;;;38.05;19.02;;;0.90;99.90;;;-144.05;79.03;57031.50;5017333;28;20068;-83
2023/02/15 07:44:14;;;;;;;42.25;20.50;;;1.20;99.90;;;-144.05;78.00;57003.88;5017624;28;20040;-83
2023/02/15 07:46:40;;;;;;;42.67;20.00;;;1.50;99.90;;;-144.05;76.94;57006.00;5036613;28;20040;-84
2023/02/15 07:49:06;;;;;;;36.90;20.60;;;1.90;99.90;;;-144.05;76.16;56982.66;5026293;28;20210;-83
2023/02/15 07:51:33;;;;;;;40.28;19.40;;;2.20;99.90;;;-144.05;75.42;57018.75;5045549;28;20033;-86
2023/02/15 07:53:59;;;;;;;37.17;17.30;;;2.50;99.90;;;-144.05;73.56;56982.66;5041717;28;20033;-83
2023/02/15 07:56:24;;;;;;;44.83;19.05;;;2.70;99.90;;;-144.05;71.22;57003.88;5041964;28;20036;-81
2023/02/15 07:58:50;;;;;;;42.25;17.95;;;2.90;99.90;;;-144.05;69.47;56986.91;5022867;28;20060;-81
2023/02/15 08:01:23;;;;;;;34.05;16.73;;;2.90;99.90;;;-144.05;67.83;56989.00;5041838;28;20033;-81
2023/02/15 08:03:49;;;;;;;32.53;16.23;;;3.20;99.90;;;-144.05;67.12;56995.38;5039133;28;20048;-82
2023/02/15 08:06:16;;;;;;;31.05;16.33;;;3.30;99.90;;;-144.05;66.70;56999.63;5022613;28;20034;-82
2023/02/15 08:08:42;;;;;;;33.60;16.05;;;3.50;99.90;;;-144.05;67.02;56993.25;5039677;28;20030;-84
2023/02/15 08:11:33;;;;;;;30.15;16.67;;;3.90;99.90;;;-144.05;67.02;56993.25;5041072;28;20060;-83
2023/02/15 08:14:03;;;;;;;32.88;16.63;;;4.20;99.90;;;-144.05;67.04;56997.50;5023443;28;20128;-83
2023/02/15 08:16:58;;;;;;;28.58;16.55;;;4.40;99.90;;;-144.05;67.64;56991.13;5024684;28;20029;-82
2023/02/15 08:19:29;;;;;;;34.70;18.00;;;4.70;99.90;;;-144.05;68.37;56984.78;5038098;28;20030;-83
2023/02/15 08:22:03;;;;;;;35.97;19.52;;;4.90;99.90;;;-144.05;68.01;56972.03;5020026;28;20030;-83
2023/02/15 08:24:38;;;;;;;36.50;19.80;;;5.00;99.90;;;-144.05;67.43;56969.91;5020408;28;20482;-81
2023/02/15 08:27:07;;;;;;;41.42;20.45;;;5.20;99.90;;;-144.05;67.33;56969.91;5037083;28;20084;-83
2023/02/15 08:29:36;;;;;;;37.60;18.02;;;5.40;99.90;;;-144.05;67.02;56969.91;5036156;28;20041;-82
2023/02/15 08:32:12;;;;;;;33.05;18.67;;;5.70;99.90;;;-144.05;65.85;56967.78;5018740;28;20053;-83
2023/02/15 08:34:41;;;;;;;32.15;17.08;;;5.90;99.90;;;-144.05;63.45;56963.53;5018770;28;20029;-84
2023/02/15 08:37:09;;;;;;;30.02;18.00;;;5.90;99.90;;;-144.05;63.30;56997.50;5036444;28;20112;-81
2023/02/15 08:39:35;;;;;;;31.25;16.15;;;5.80;99.90;;;-144.05;63.53;56989.00;5036172;28;20053;-83
2023/02/15 08:42:01;;;;;;;29.52;17.00;;;5.90;99.90;;;-144.05;62.94;56955.03;5035600;28;20056;-83
2023/02/15 08:44:27;;;;;;;31.35;18.70;;;6.10;99.90;;;-144.05;62.88;56948.66;5036355;28;20089;-82
2023/02/15 08:46:53;;;;;;;31.33;18.20;;;6.20;99.90;;;-144.05;62.50;56948.66;5018256;28;20118;-82
2023/02/15 08:49:21;;;;;;;30.15;18.15;;;6.30;99.90;;;-144.05;62.57;56950.78;5015890;28;20032;-85
2023/02/15 08:51:49;;;;;;;37.97;19.27;;;6.70;99.90;;;-144.05;60.87;56967.78;5018036;28;20021;-83
2023/02/15 08:54:21;;;;;;;35.92;19.73;;;6.90;99.90;;;-144.05;60.09;56955.03;5034725;28;20025;-82
2023/02/15 08:56:47;;;;;;;33.30;19.67;;;7.10;99.90;;;-144.05;58.68;56948.66;5034903;28;20442;-81
2023/02/15 08:59:20;;;;;;;36.80;18.75;;;7.30;99.90;;;-144.05;58.06;56959.28;5035201;28;20120;-83
2023/02/15 09:01:49;;;;;;;32.17;18.38;;;7.60;99.90;;;-144.05;57.45;56946.53;5035244;28;20033;-84
2023/02/15 09:04:16;;;;;;;36.20;17.63;;;8.00;99.90;;;-144.05;56.93;56952.91;5017138;28;20036;-83
2023/02/15 09:06:45;;;;;;;35.67;18.00;;;8.40;99.90;;;-144.05;56.06;56950.78;5035450;28;20064;-83
2023/02/15 09:09:12;;;;;;;35.30;17.52;;;8.80;99.90;;;-144.05;54.90;56921.06;5035774;28;20025;-82
2023/02/15 09:11:43;;;;;;;33.20;17.40;;;9.10;99.90;;;-144.05;54.02;56942.28;5032363;28;20032;-79
2023/02/15 09:14:16;;;;;;;33.22;16.85;;;9.30;99.90;;;-144.05;52.65;56946.53;5044063;28;20025;-83
2023/02/15 09:16:48;;;;;;;35.72;17.27;;;9.50;99.90;;;-144.05;52.56;56931.66;5018264;28;20056;-84
2023/02/15 09:19:17;;;;;;;33.60;16.80;;;9.70;99.90;;;-144.05;51.31;56918.94;5035873;28;20358;-82
2023/02/15 09:21:43;;;;;;;28.40;15.45;;;9.80;99.90;;;-144.05;50.64;56940.16;5037236;28;20064;-86
2023/02/15 09:24:14;;;;;;;30.50;16.75;;;9.80;99.90;;;-144.05;50.31;56944.41;5035815;28;20119;-82
2023/02/15 09:26:45;;;;;;;29.60;16.48;;;10.00;99.90;;;-144.05;49.47;56927.41;5035326;28;20129;-83
2023/02/15 09:29:13;;;;;;;30.40;15.32;;;10.10;99.90;;;-144.05;50.06;56918.94;5016774;28;20076;-84
2023/02/15 09:31:48;;;;;;;30.17;15.40;;;10.30;99.90;;;-144.05;48.93;56929.53;5017556;28;20374;-82
2023/02/15 09:34:18;;;;;;;28.73;15.73;;;10.40;99.90;;;-144.05;49.13;56940.16;5034654;28;20462;-83
2023/02/15 09:36:45;;;;;;;27.52;15.68;;;10.60;99.90;;;-144.05;49.12;56938.03;5034826;28;20272;-84
2023/02/15 09:39:27;;;;;;;29.38;15.90;;;10.70;99.90;;;-144.05;48.01;56927.41;5035958;28;20544;-84
2023/02/15 09:42:43;;;;;;;30.10;15.60;;;10.90;99.90;;;-144.05;47.58;56946.53;5036217;28;20072;-81
2023/02/15 09:45:43;;;;;;;26.48;14.15;;;11.00;99.90;;;-144.05;46.39;56938.03;5035385;28;20045;-84
2023/02/15 09:48:40;;;;;;;27.98;14.52;;;11.10;99.90;;;-144.05;46.72;56955.03;5034332;28;20524;-81
2023/02/15 09:51:52;;;;;;;25.45;14.63;;;11.20;99.90;;;-144.05;46.32;56940.16;5042270;28;20030;-81
2023/02/15 09:55:01;;;;;;;29.35;14.55;;;11.40;99.90;;;-144.05;45.47;56921.06;5016988;28;20048;-82
2023/02/15 09:58:09;;;;;;;24.02;13.68;;;11.70;99.90;;;-144.05;44.33;56938.03;5034148;28;20101;-84
2023/02/15 10:00:49;;;;;;;26.73;14.38;;;12.00;99.90;;;-144.05;44.59;56929.53;5016860;28;20493;-83
2023/02/15 10:03:39;;;;;;;29.70;14.65;;;12.20;99.90;;;-144.05;42.50;56933.78;5038235;28;20167;-81
2023/02/15 10:06:32;;;;;;;21.50;12.73;;;12.40;99.90;;;-144.05;42.75;56961.41;5020123;28;20398;-83
2023/02/15 10:09:33;;;;;;;25.42;12.90;;;12.40;99.90;;;-144.05;41.97;56904.06;5037303;28;20402;-81
2023/02/15 10:12:46;;;;;;;23.45;12.25;;;12.60;99.90;;;-144.05;41.88;56929.53;5034034;28;20046;-82
2023/02/15 10:15:53;;;;;;;25.05;13.30;;;12.90;99.90;;;-144.05;41.19;56921.06;5038303;28;20033;-82
2023/02/15 10:18:58;;;;;;;23.30;12.88;;;13.00;99.90;;;-144.05;40.70;56942.28;5040915;28;20033;-81
2023/02/15 10:22:07;;;;;;;23.30;12.50;;;13.10;99.90;;;-144.05;40.67;56929.53;5027655;28;20095;-84
2023/02/15 10:25:25;;;;;;;26.75;13.30;;;13.30;99.90;;;-144.05;40.43;56933.78;5040033;28;20029;-82
2023/02/15 10:27:51;;;;;;;24.45;13.18;;;13.50;99.90;;;-144.05;40.36;56944.41;5021739;28;20053;-83
2023/02/15 10:30:34;;;;;;;26.58;14.90;;;13.70;99.90;;;-144.05;40.50;56959.28;5019882;28;20569;-82
2023/02/15 10:33:40;;;;;;;39.20;19.88;;;13.80;99.90;;;-144.05;40.79;56916.81;5021118;28;20033;-82
2023/02/15 10:37:04;;;;;;;40.80;20.45;;;13.60;99.90;;;-144.05;41.31;56933.78;5021416;28;20036;-84
2023/02/15 10:39:38;;;;;;;36.22;19.75;;;13.40;99.90;;;-144.05;41.91;56959.28;5019100;28;20029;-83
2023/02/15 10:42:20;;;;;;;33.70;18.80;;;13.30;99.90;;;-144.05;41.82;56946.53;5019108;28;20454;-82
2023/02/15 10:45:32;;;;;;;29.92;17.70;;;13.50;99.90;;;-144.05;40.58;56927.41;5038102;28;20044;-83
2023/02/15 10:48:40;;;;;;;35.40;19.08;;;13.80;99.90;;;-144.05;40.57;56950.78;5036753;28;20060;-86
2023/02/15 10:51:19;;;;;;;32.53;17.20;;;14.10;99.90;;;-144.05;39.45;56927.41;5019422;28;20489;-84